Decoded Metar for UBBG (GYANDZHA in RUSSIA) (IATA:N/A) | Meteo·Mobile Aviation Weather
aviador You're here:

UBBG Decoded Metar

GYANDZHA in RUSSIA
Report Time2019-03-20 00:30:00
UTC Time2019-03-20 00:48:27
Flight Rules vfr VFR
Wind270° at 02 kt
W.Decomp.*RWY 30: 1.7 kt HW 1.1 kt LCW
W.Rank270° ranks 8
Current wind is below 270° avg. (6.3)
Visibility9999 m
Phenomena:N/A
Clouds:Broken 083 Hf
Expected CloudBase > 1,200 ft AGL from Temp-Dew spread
Ceiling8,300 ft
Temp06°C (ISA -7)
Dew Point03°C (81% RH)
AAT3.8°C
QNH1021 hPa
Density Alt95 ft
Elevation1,083 ft
Report Wrong Elevation
Raw Report
UBBG 200030Z 27002KT 9999 BKN083 06/03 Q1021 R12/CLRD// NOSIG=

Extra information for UBBG:More info

Metar Taf Metar & Taf Last 4 Metars F.Rules Stats Wind Profile Meteogram Temp Stats Airport Information Weather charts Add Link Nearby VenuesMetar ALERT Operation Metar Decoded Social comments